createdAt,value
2022-09-07T00:00:07.085Z,36.10
2022-09-07T00:00:36.992Z,36.03
2022-09-07T00:01:07.011Z,36.04
2022-09-07T00:01:37.040Z,36.07
2022-09-07T00:02:07.062Z,36.07
2022-09-07T00:02:37.169Z,36.05
2022-09-07T00:03:07.303Z,36.04
2022-09-07T00:03:37.269Z,36.07
2022-09-07T00:04:07.413Z,36.12
2022-09-07T00:04:37.361Z,36.10
2022-09-07T00:05:07.369Z,36.09
2022-09-07T00:05:37.398Z,36.11
2022-09-07T00:06:07.414Z,36.11
2022-09-07T00:06:37.444Z,36.07
2022-09-07T00:07:07.470Z,36.11
2022-09-07T00:07:37.492Z,36.08
2022-09-07T00:08:07.518Z,36.10
2022-09-07T00:08:37.543Z,36.15
2022-09-07T00:09:07.566Z,36.12
2022-09-07T00:09:37.592Z,36.11
2022-09-07T00:10:07.769Z,36.15
2022-09-07T00:10:37.689Z,36.12
2022-09-07T00:11:07.713Z,36.13
2022-09-07T00:11:37.735Z,36.12
2022-09-07T00:12:07.752Z,36.16
2022-09-07T00:12:37.782Z,36.14
2022-09-07T00:13:07.811Z,36.14
2022-09-07T00:13:37.834Z,36.16
2022-09-07T00:14:07.862Z,36.13
2022-09-07T00:14:37.880Z,36.14
2022-09-07T00:15:07.924Z,36.13
2022-09-07T00:15:37.950Z,36.13
2022-09-07T00:16:08.093Z,36.13
2022-09-07T00:16:38.077Z,36.16
2022-09-07T00:17:08.002Z,36.14
2022-09-07T00:17:38.031Z,36.13
2022-09-07T00:18:08.052Z,36.11
2022-09-07T00:18:40.343Z,36.13
2022-09-07T00:19:08.112Z,36.17
2022-09-07T00:19:38.139Z,36.17
2022-09-07T00:20:08.182Z,36.19
2022-09-07T00:20:38.205Z,36.16
2022-09-07T00:21:08.240Z,36.19
2022-09-07T00:21:38.258Z,36.16
2022-09-07T00:22:08.278Z,36.19
2022-09-07T00:22:38.309Z,36.17
2022-09-07T00:23:08.327Z,36.19
2022-09-07T00:23:38.357Z,36.17
2022-09-07T00:24:08.376Z,36.14
2022-09-07T00:24:38.402Z,36.15
2022-09-07T00:25:08.452Z,36.20
2022-09-07T00:25:38.480Z,36.17
2022-09-07T00:26:08.505Z,36.21
2022-09-07T00:26:38.535Z,36.23
2022-09-07T00:27:08.559Z,36.14
2022-09-07T00:27:38.584Z,36.14
2022-09-07T00:28:08.607Z,36.17
2022-09-07T00:28:38.634Z,36.17
2022-09-07T00:29:08.653Z,36.23
2022-09-07T00:29:38.767Z,36.19
2022-09-07T00:30:08.889Z,36.23
2022-09-07T00:30:38.876Z,36.20
2022-09-07T00:31:09.034Z,36.19
2022-09-07T00:31:39.076Z,36.17
2022-09-07T00:32:09.089Z,36.17
2022-09-07T00:32:39.208Z,36.19
2022-09-07T00:33:09.320Z,36.19
2022-09-07T00:33:39.432Z,36.21
2022-09-07T00:34:09.547Z,36.17
2022-09-07T00:34:39.650Z,36.23
2022-09-07T00:35:09.775Z,36.20
2022-09-07T00:35:39.882Z,36.21
2022-09-07T00:36:09.995Z,36.24
2022-09-07T00:36:40.107Z,36.25
2022-09-07T00:37:10.215Z,36.21
2022-09-07T00:37:40.332Z,36.24
2022-09-07T00:38:10.444Z,36.24
2022-09-07T00:38:40.556Z,36.21
2022-09-07T00:39:10.670Z,36.21
2022-09-07T00:39:40.770Z,36.24
2022-09-07T00:40:10.855Z,36.25
2022-09-07T00:40:40.901Z,36.23
2022-09-07T00:41:10.921Z,36.26
2022-09-07T00:41:40.945Z,36.28
2022-09-07T00:42:10.969Z,36.30
2022-09-07T00:42:40.995Z,36.30
2022-09-07T00:43:11.033Z,36.25
2022-09-07T00:43:41.051Z,36.30
2022-09-07T00:44:11.085Z,36.33
2022-09-07T00:44:41.103Z,36.31
2022-09-07T00:45:11.132Z,36.34
2022-09-07T00:45:41.157Z,36.34
2022-09-07T00:46:11.238Z,36.32
2022-09-07T00:46:41.287Z,36.34
2022-09-07T00:47:11.273Z,36.33
2022-09-07T00:47:41.303Z,36.34
2022-09-07T00:48:11.330Z,36.34
2022-09-07T00:48:41.352Z,36.36
2022-09-07T00:49:11.379Z,36.33
2022-09-07T00:49:41.402Z,36.37
2022-09-07T00:50:11.424Z,36.37
2022-09-07T00:50:41.451Z,36.37
2022-09-07T00:51:11.486Z,36.37
2022-09-07T00:51:41.496Z,36.38
2022-09-07T00:52:11.522Z,36.40
2022-09-07T00:52:41.555Z,36.41
2022-09-07T00:53:11.579Z,36.36
2022-09-07T00:53:41.605Z,36.37
2022-09-07T00:54:11.626Z,36.34
2022-09-07T00:54:41.646Z,36.41
2022-09-07T00:55:11.669Z,36.38
2022-09-07T00:55:41.699Z,36.40
2022-09-07T00:56:11.715Z,36.41
2022-09-07T00:56:41.744Z,36.41
2022-09-07T00:57:11.772Z,36.41
2022-09-07T00:57:41.799Z,36.45
2022-09-07T00:58:11.820Z,36.41
2022-09-07T00:58:41.845Z,36.42
2022-09-07T00:59:11.868Z,36.43
2022-09-07T00:59:41.892Z,36.44
2022-09-07T01:00:11.923Z,36.44
2022-09-07T01:00:41.949Z,36.41
2022-09-07T01:01:11.973Z,36.49
2022-09-07T01:01:42.176Z,36.47
2022-09-07T01:02:12.252Z,36.44
2022-09-07T01:02:42.371Z,36.45
2022-09-07T01:03:12.235Z,36.47
2022-09-07T01:03:42.260Z,36.45
2022-09-07T01:04:12.283Z,36.41
2022-09-07T01:04:42.312Z,36.42
2022-09-07T01:05:12.339Z,36.48
2022-09-07T01:05:42.363Z,36.47
2022-09-07T01:06:12.393Z,36.47
2022-09-07T01:06:42.417Z,36.50
2022-09-07T01:07:12.440Z,36.47
2022-09-07T01:07:42.461Z,36.50
2022-09-07T01:08:12.492Z,36.45
2022-09-07T01:08:42.514Z,36.47
2022-09-07T01:09:12.541Z,36.47
2022-09-07T01:09:42.571Z,36.47
2022-09-07T01:10:12.596Z,36.45
2022-09-07T01:10:42.626Z,36.48
2022-09-07T01:11:12.652Z,36.44
2022-09-07T01:11:42.674Z,36.45
2022-09-07T01:12:12.708Z,36.42
2022-09-07T01:12:42.735Z,36.47
2022-09-07T01:13:12.764Z,36.45
2022-09-07T01:13:42.793Z,36.45
2022-09-07T01:14:12.818Z,36.50
2022-09-07T01:14:42.851Z,36.48
2022-09-07T01:15:12.876Z,36.47
2022-09-07T01:15:42.944Z,36.47
2022-09-07T01:16:13.004Z,36.50
2022-09-07T01:16:43.008Z,36.52
2022-09-07T01:17:13.042Z,36.54
2022-09-07T01:17:43.062Z,36.51
2022-09-07T01:18:13.087Z,36.50
2022-09-07T01:18:43.114Z,36.47
2022-09-07T01:19:13.138Z,36.50
2022-09-07T01:19:43.169Z,36.50
2022-09-07T01:20:13.193Z,36.55
2022-09-07T01:20:43.219Z,36.47
2022-09-07T01:21:13.247Z,36.54
2022-09-07T01:21:43.270Z,36.51
2022-09-07T01:22:13.300Z,36.47
2022-09-07T01:22:43.323Z,36.51
2022-09-07T01:23:13.346Z,36.54
2022-09-07T01:23:43.380Z,36.57
2022-09-07T01:24:13.412Z,36.51
2022-09-07T01:24:43.450Z,36.47
2022-09-07T01:25:13.480Z,36.56
2022-09-07T01:25:43.505Z,36.50
2022-09-07T01:26:13.528Z,36.51
2022-09-07T01:26:43.547Z,36.52
2022-09-07T01:27:13.586Z,36.56
2022-09-07T01:27:43.604Z,36.57
2022-09-07T01:28:13.629Z,36.55
2022-09-07T01:28:43.652Z,36.57
2022-09-07T01:29:13.677Z,36.54
2022-09-07T01:29:43.802Z,36.58
2022-09-07T01:30:13.786Z,36.52
2022-09-07T01:30:43.948Z,36.54
2022-09-07T01:31:14.045Z,36.54
2022-09-07T01:31:44.040Z,36.60
2022-09-07T01:32:14.156Z,36.58
2022-09-07T01:32:44.269Z,36.52
2022-09-07T01:33:14.387Z,36.50
2022-09-07T01:33:44.496Z,36.55
2022-09-07T01:34:14.622Z,36.58
2022-09-07T01:34:44.749Z,36.56
2022-09-07T01:35:14.735Z,36.56
2022-09-07T01:35:44.844Z,36.57
2022-09-07T01:36:14.962Z,36.54
2022-09-07T01:36:45.074Z,36.51
2022-09-07T01:37:15.188Z,36.55
2022-09-07T01:37:45.301Z,36.60
2022-09-07T01:38:15.421Z,36.53
2022-09-07T01:38:45.536Z,36.56
2022-09-07T01:39:15.529Z,36.56
2022-09-07T01:39:45.611Z,36.61
2022-09-07T01:40:15.653Z,36.57
2022-09-07T01:40:45.669Z,36.58
2022-09-07T01:41:15.697Z,36.54
2022-09-07T01:41:45.721Z,36.55
2022-09-07T01:42:15.742Z,36.57
2022-09-07T01:42:45.776Z,36.64
2022-09-07T01:43:15.797Z,36.57
2022-09-07T01:43:45.821Z,36.62
2022-09-07T01:44:15.850Z,36.57
2022-09-07T01:44:45.875Z,36.58
2022-09-07T01:45:15.904Z,36.57
2022-09-07T01:45:45.930Z,36.54
2022-09-07T01:46:16.004Z,36.57
2022-09-07T01:46:46.171Z,36.57
2022-09-07T01:47:16.100Z,36.52
2022-09-07T01:47:46.125Z,36.54
2022-09-07T01:48:16.146Z,36.54
2022-09-07T01:48:46.174Z,36.61
2022-09-07T01:49:16.193Z,36.60
2022-09-07T01:49:46.235Z,36.58
2022-09-07T01:50:16.261Z,36.57
2022-09-07T01:50:46.289Z,36.60
2022-09-07T01:51:16.313Z,36.59
2022-09-07T01:51:46.338Z,36.60
2022-09-07T01:52:16.362Z,36.62
2022-09-07T01:52:46.393Z,36.60
2022-09-07T01:53:16.424Z,36.57
2022-09-07T01:53:46.455Z,36.54
2022-09-07T01:54:16.445Z,36.57
2022-09-07T01:54:46.479Z,36.59
2022-09-07T01:55:16.506Z,36.60
2022-09-07T01:55:46.532Z,36.55
2022-09-07T01:56:16.544Z,36.57
2022-09-07T01:56:46.574Z,36.63
2022-09-07T01:57:16.597Z,36.57
2022-09-07T01:57:46.624Z,36.57
2022-09-07T01:58:16.658Z,36.67
2022-09-07T01:58:46.684Z,36.62
2022-09-07T01:59:16.711Z,36.64
2022-09-07T01:59:46.747Z,36.64
2022-09-07T02:00:16.773Z,36.63
2022-09-07T02:00:46.795Z,36.63
2022-09-07T02:01:16.933Z,36.65
2022-09-07T02:01:47.006Z,36.61
2022-09-07T02:02:17.087Z,36.58
2022-09-07T02:02:47.252Z,36.55
2022-09-07T02:03:17.149Z,36.66
2022-09-07T02:03:47.191Z,36.60
2022-09-07T02:04:17.228Z,36.64
2022-09-07T02:04:47.253Z,36.63
2022-09-07T02:05:17.274Z,36.65
2022-09-07T02:05:47.308Z,36.64
2022-09-07T02:06:17.333Z,36.60
2022-09-07T02:06:47.352Z,36.64
2022-09-07T02:07:17.380Z,36.65
2022-09-07T02:07:47.400Z,36.65
2022-09-07T02:08:17.432Z,36.69
2022-09-07T02:08:47.459Z,36.65
2022-09-07T02:09:17.532Z,36.73
2022-09-07T02:09:47.561Z,36.69
2022-09-07T02:10:17.587Z,36.64
2022-09-07T02:10:47.609Z,36.69
2022-09-07T02:11:17.644Z,36.69
2022-09-07T02:11:47.672Z,36.71
2022-09-07T02:12:17.694Z,36.67
2022-09-07T02:12:47.723Z,36.69
2022-09-07T02:13:17.759Z,36.69
2022-09-07T02:13:47.779Z,36.70
2022-09-07T02:14:17.808Z,36.67
2022-09-07T02:14:52.393Z,36.67
2022-09-07T02:15:17.949Z,36.67
2022-09-07T02:15:48.052Z,36.67
2022-09-07T02:16:18.203Z,36.69
2022-09-07T02:16:48.103Z,36.67
2022-09-07T02:17:18.131Z,36.70
2022-09-07T02:17:48.154Z,36.70
2022-09-07T02:18:18.190Z,36.69
2022-09-07T02:18:48.220Z,36.71
2022-09-07T02:19:18.252Z,36.64
2022-09-07T02:19:48.275Z,36.69
2022-09-07T02:20:18.323Z,36.73
2022-09-07T02:20:48.347Z,36.66
2022-09-07T02:21:18.372Z,36.64
2022-09-07T02:21:48.392Z,36.66
2022-09-07T02:22:18.423Z,36.63
2022-09-07T02:22:48.446Z,36.69
2022-09-07T02:23:18.488Z,36.69
2022-09-07T02:23:48.517Z,36.65
2022-09-07T02:24:18.548Z,36.66
2022-09-07T02:24:48.571Z,36.64
2022-09-07T02:25:18.591Z,36.62
2022-09-07T02:25:48.613Z,36.69
2022-09-07T02:26:18.638Z,36.64
2022-09-07T02:26:48.660Z,36.69
2022-09-07T02:27:18.685Z,36.69
2022-09-07T02:27:48.703Z,36.63
2022-09-07T02:28:18.761Z,36.65
2022-09-07T02:28:48.793Z,36.67
2022-09-07T02:29:18.799Z,36.62
2022-09-07T02:29:48.911Z,36.65
2022-09-07T02:30:19.028Z,36.57
2022-09-07T02:30:49.064Z,36.66
2022-09-07T02:31:19.147Z,36.66
2022-09-07T02:31:49.135Z,36.63
2022-09-07T02:32:19.248Z,36.72
2022-09-07T02:32:49.359Z,36.67
2022-09-07T02:33:19.486Z,36.69
2022-09-07T02:33:49.472Z,36.66
2022-09-07T02:34:19.582Z,36.67
2022-09-07T02:34:49.693Z,36.62
2022-09-07T02:35:19.811Z,36.64
2022-09-07T02:35:49.920Z,36.65
2022-09-07T02:36:20.030Z,36.67
2022-09-07T02:36:50.141Z,36.63
2022-09-07T02:37:20.257Z,36.60
2022-09-07T02:37:50.382Z,36.62
2022-09-07T02:38:20.525Z,36.63
2022-09-07T02:38:50.526Z,36.63
2022-09-07T02:39:20.517Z,36.69
2022-09-07T02:39:50.604Z,36.65
2022-09-07T02:40:20.625Z,36.66
2022-09-07T02:40:50.647Z,36.67
2022-09-07T02:41:20.669Z,36.65
2022-09-07T02:41:50.694Z,36.63
2022-09-07T02:42:20.724Z,36.66
2022-09-07T02:42:50.747Z,36.67
2022-09-07T02:43:20.806Z,36.66
2022-09-07T02:43:50.841Z,36.68
2022-09-07T02:44:20.870Z,36.66
2022-09-07T02:44:50.890Z,36.67
2022-09-07T02:45:20.916Z,36.66
2022-09-07T02:45:50.985Z,36.66
2022-09-07T02:46:21.122Z,36.66
2022-09-07T02:46:51.045Z,36.66
2022-09-07T02:47:21.070Z,36.63
2022-09-07T02:47:51.099Z,36.63
2022-09-07T02:48:21.130Z,36.63
2022-09-07T02:48:51.161Z,36.65
2022-09-07T02:49:21.183Z,36.67
2022-09-07T02:49:51.218Z,36.62
2022-09-07T02:50:21.238Z,36.66
2022-09-07T02:50:51.260Z,36.66
2022-09-07T02:51:21.280Z,36.69
2022-09-07T02:51:51.302Z,36.68
2022-09-07T02:52:21.328Z,36.70
2022-09-07T02:52:51.350Z,36.67
2022-09-07T02:53:21.402Z,36.72
2022-09-07T02:53:51.436Z,36.67
2022-09-07T02:54:21.452Z,36.71
2022-09-07T02:54:51.486Z,36.69
2022-09-07T02:55:21.512Z,36.64
2022-09-07T02:55:51.541Z,36.63
2022-09-07T02:56:21.579Z,36.60
2022-09-07T02:56:51.592Z,36.67
2022-09-07T02:57:21.615Z,36.66
2022-09-07T02:57:51.649Z,36.64
2022-09-07T02:58:21.687Z,36.69
2022-09-07T02:58:51.711Z,36.69
2022-09-07T02:59:21.734Z,36.70
2022-09-07T02:59:51.759Z,36.67
2022-09-07T03:00:21.784Z,36.70
2022-09-07T03:00:51.814Z,36.70
2022-09-07T03:01:21.886Z,36.69
2022-09-07T03:01:51.973Z,36.67
2022-09-07T03:02:22.064Z,36.67
2022-09-07T03:02:52.203Z,36.69
2022-09-07T03:03:22.161Z,36.72
2022-09-07T03:03:52.193Z,36.65
2022-09-07T03:04:22.215Z,36.70
2022-09-07T03:04:52.251Z,36.67
2022-09-07T03:05:22.274Z,36.69
2022-09-07T03:05:52.294Z,36.69
2022-09-07T03:06:22.326Z,36.66
2022-09-07T03:06:52.344Z,36.70
2022-09-07T03:07:22.371Z,36.67
2022-09-07T03:07:52.393Z,36.67
2022-09-07T03:08:22.426Z,36.65
2022-09-07T03:08:52.449Z,36.67
2022-09-07T03:09:22.472Z,36.73
2022-09-07T03:09:52.498Z,36.67
2022-09-07T03:10:22.520Z,36.70
2022-09-07T03:10:52.547Z,36.69
2022-09-07T03:11:22.573Z,36.69
2022-09-07T03:11:52.594Z,36.66
2022-09-07T03:12:22.617Z,36.67
2022-09-07T03:12:52.641Z,36.69
2022-09-07T03:13:22.667Z,36.70
2022-09-07T03:13:52.702Z,36.65
2022-09-07T03:14:22.723Z,36.66
2022-09-07T03:14:52.754Z,36.65
2022-09-07T03:15:22.842Z,36.65
2022-09-07T03:15:55.884Z,36.64
2022-09-07T03:16:22.985Z,36.69
2022-09-07T03:16:52.984Z,36.67
2022-09-07T03:17:23.013Z,36.69
2022-09-07T03:17:53.041Z,36.69
2022-09-07T03:18:23.073Z,36.73
2022-09-07T03:18:53.099Z,36.70
2022-09-07T03:19:23.122Z,36.65
2022-09-07T03:19:53.147Z,36.69
2022-09-07T03:20:23.169Z,36.68
2022-09-07T03:20:53.191Z,36.71
2022-09-07T03:21:23.220Z,36.70
2022-09-07T03:21:53.242Z,36.64
2022-09-07T03:22:23.260Z,36.73
2022-09-07T03:22:53.287Z,36.67
2022-09-07T03:23:23.314Z,36.68
2022-09-07T03:23:53.340Z,36.64
2022-09-07T03:24:23.358Z,36.73
2022-09-07T03:24:53.379Z,36.65
2022-09-07T03:25:23.402Z,36.70
2022-09-07T03:25:53.426Z,36.73
2022-09-07T03:26:23.453Z,36.76
2022-09-07T03:26:53.472Z,36.71
2022-09-07T03:27:23.508Z,36.69
2022-09-07T03:27:53.523Z,36.70
2022-09-07T03:28:23.559Z,36.67
2022-09-07T03:28:53.584Z,36.69
2022-09-07T03:29:23.577Z,36.69
2022-09-07T03:29:53.692Z,36.69
2022-09-07T03:30:23.825Z,36.72
2022-09-07T03:30:54.098Z,36.74
2022-09-07T03:31:24.059Z,36.72
2022-09-07T03:31:54.059Z,36.77
2022-09-07T03:32:24.173Z,36.68
2022-09-07T03:32:54.288Z,36.74
2022-09-07T03:33:24.403Z,36.77
2022-09-07T03:33:54.515Z,36.71
2022-09-07T03:34:24.537Z,36.72
2022-09-07T03:34:54.650Z,36.69
2022-09-07T03:35:24.763Z,36.71
2022-09-07T03:35:54.868Z,36.71
2022-09-07T03:36:24.977Z,36.72
2022-09-07T03:36:55.102Z,36.69
2022-09-07T03:37:25.199Z,36.74
2022-09-07T03:37:55.316Z,36.74
2022-09-07T03:38:25.429Z,36.69
2022-09-07T03:38:55.538Z,36.72
2022-09-07T03:39:25.621Z,36.72
2022-09-07T03:39:55.716Z,36.70
2022-09-07T03:40:25.739Z,36.68
2022-09-07T03:40:55.761Z,36.74
2022-09-07T03:41:25.785Z,36.66
2022-09-07T03:41:55.814Z,36.71
2022-09-07T03:42:25.831Z,36.77
2022-09-07T03:42:55.855Z,36.75
2022-09-07T03:43:25.883Z,36.72
2022-09-07T03:43:55.905Z,36.71
2022-09-07T03:44:25.935Z,36.71
2022-09-07T03:44:55.961Z,36.66
2022-09-07T03:45:25.979Z,36.72
2022-09-07T03:45:56.082Z,36.78
2022-09-07T03:46:26.150Z,36.76
2022-09-07T03:46:56.193Z,36.71
2022-09-07T03:47:26.217Z,36.77
2022-09-07T03:47:56.242Z,36.94
2022-09-07T03:48:26.279Z,36.94
2022-09-07T03:48:56.288Z,36.90
2022-09-07T03:49:26.309Z,36.93
2022-09-07T03:49:56.330Z,36.93
2022-09-07T03:50:26.353Z,36.88
2022-09-07T03:50:56.376Z,36.95
2022-09-07T03:51:26.397Z,37.03
2022-09-07T03:51:56.429Z,37.05
2022-09-07T03:52:26.439Z,37.31
2022-09-07T03:52:56.469Z,37.45
2022-09-07T03:53:26.495Z,37.33
2022-09-07T03:53:56.512Z,37.31
2022-09-07T03:54:26.532Z,37.44
2022-09-07T03:54:56.549Z,37.29
2022-09-07T03:55:26.571Z,37.30
2022-09-07T03:55:56.596Z,37.25
2022-09-07T03:56:26.621Z,37.23
2022-09-07T03:56:56.646Z,37.23
2022-09-07T03:57:26.666Z,37.16
2022-09-07T03:57:56.707Z,37.23
2022-09-07T03:58:26.845Z,37.20
2022-09-07T03:58:56.844Z,37.22
2022-09-07T03:59:26.868Z,37.22
2022-09-07T03:59:56.889Z,37.19
2022-09-07T04:00:26.923Z,37.22
2022-09-07T04:00:56.981Z,37.23
2022-09-07T04:01:27.090Z,37.35
2022-09-07T04:01:57.027Z,37.25
2022-09-07T04:02:27.097Z,37.23
2022-09-07T04:02:57.189Z,37.27
2022-09-07T04:03:27.136Z,37.36
2022-09-07T04:04:01.372Z,37.41
2022-09-07T04:04:27.209Z,37.35
2022-09-07T04:04:57.228Z,37.38
2022-09-07T04:05:27.259Z,37.29
2022-09-07T04:05:57.295Z,37.40
2022-09-07T04:06:27.314Z,37.36
2022-09-07T04:06:57.342Z,37.30
2022-09-07T04:07:27.358Z,37.31
2022-09-07T04:07:57.383Z,37.36
2022-09-07T04:08:27.423Z,37.31
2022-09-07T04:08:57.432Z,37.31
2022-09-07T04:09:27.451Z,37.31
2022-09-07T04:09:57.477Z,37.24
2022-09-07T04:10:27.505Z,37.33
2022-09-07T04:10:57.529Z,37.28
2022-09-07T04:11:27.556Z,37.34
2022-09-07T04:11:57.580Z,37.25
2022-09-07T04:12:27.608Z,37.31
2022-09-07T04:12:57.631Z,37.25
2022-09-07T04:13:27.652Z,37.23
2022-09-07T04:13:57.678Z,37.21
2022-09-07T04:14:27.705Z,37.19
2022-09-07T04:14:57.728Z,37.24
2022-09-07T04:15:27.765Z,37.24
2022-09-07T04:15:57.779Z,37.27
2022-09-07T04:16:27.875Z,37.23
2022-09-07T04:16:57.979Z,37.28
2022-09-07T04:17:28.007Z,37.30
2022-09-07T04:17:58.034Z,37.30
2022-09-07T04:18:28.127Z,37.26
2022-09-07T04:18:58.120Z,37.32
2022-09-07T04:19:28.142Z,37.33
2022-09-07T04:19:58.177Z,37.29
2022-09-07T04:20:28.207Z,37.36
2022-09-07T04:20:58.228Z,37.33
2022-09-07T04:21:28.252Z,37.36
2022-09-07T04:21:58.277Z,37.42
2022-09-07T04:22:28.293Z,37.45
2022-09-07T04:22:58.360Z,37.41
2022-09-07T04:23:28.417Z,37.43
2022-09-07T04:23:58.442Z,37.41
2022-09-07T04:24:28.461Z,37.39
2022-09-07T04:24:58.486Z,37.50
2022-09-07T04:25:28.503Z,37.41
2022-09-07T04:25:58.527Z,37.46
2022-09-07T04:26:28.601Z,37.49
2022-09-07T04:26:58.619Z,37.45
2022-09-07T04:27:28.644Z,37.41
2022-09-07T04:27:58.686Z,37.47
2022-09-07T04:28:28.795Z,37.61
2022-09-07T04:28:58.821Z,38.14
2022-09-07T04:29:28.815Z,38.93
2022-09-07T04:29:58.932Z,39.39
2022-09-07T04:30:29.049Z,40.01
2022-09-07T04:30:59.136Z,40.65
2022-09-07T04:31:29.235Z,41.05
2022-09-07T04:31:59.228Z,41.61
2022-09-07T04:32:29.260Z,42.15
2022-09-07T04:32:59.276Z,42.78
2022-09-07T04:33:29.406Z,43.44
2022-09-07T04:33:59.448Z,43.89
2022-09-07T04:34:29.483Z,44.34
2022-09-07T04:34:59.501Z,44.73
2022-09-07T04:35:29.621Z,45.37
2022-09-07T04:35:59.732Z,45.82
2022-09-07T04:36:29.846Z,46.13
2022-09-07T04:36:59.964Z,46.63
2022-09-07T04:37:30.082Z,47.07
2022-09-07T04:38:00.103Z,47.54
2022-09-07T04:38:30.347Z,48.01
2022-09-07T04:39:00.104Z,48.49
2022-09-07T04:39:30.186Z,48.97
2022-09-07T04:40:00.307Z,49.38
2022-09-07T04:40:30.249Z,49.89
2022-09-07T04:41:00.273Z,50.16
2022-09-07T04:41:30.299Z,50.58
2022-09-07T04:42:00.323Z,50.74
2022-09-07T04:42:30.351Z,50.96
2022-09-07T04:43:00.384Z,51.17
2022-09-07T04:43:30.478Z,51.25
2022-09-07T04:44:00.491Z,51.40
2022-09-07T04:44:30.517Z,51.56
2022-09-07T04:45:00.550Z,51.46
2022-09-07T04:45:30.596Z,51.26
2022-09-07T04:46:00.669Z,51.23
2022-09-07T04:46:30.780Z,51.31
2022-09-07T04:47:00.695Z,51.38
2022-09-07T04:47:30.724Z,51.60
2022-09-07T04:48:00.760Z,51.75
2022-09-07T04:48:30.898Z,51.91
2022-09-07T04:49:00.902Z,52.07
2022-09-07T04:49:30.917Z,52.18
2022-09-07T04:50:00.943Z,52.14
2022-09-07T04:50:30.972Z,52.34
2022-09-07T04:51:05.242Z,52.47
2022-09-07T04:51:31.056Z,52.69
2022-09-07T04:52:01.076Z,52.70
2022-09-07T04:52:31.107Z,52.65
2022-09-07T04:53:01.131Z,52.83
2022-09-07T04:53:31.156Z,52.78
2022-09-07T04:54:01.184Z,52.77
2022-09-07T04:54:31.210Z,53.08
2022-09-07T04:55:01.237Z,53.20
2022-09-07T04:55:31.261Z,53.32
2022-09-07T04:56:01.282Z,53.45
2022-09-07T04:56:31.307Z,53.64
2022-09-07T04:57:01.328Z,53.63
2022-09-07T04:57:31.358Z,53.65
2022-09-07T04:58:01.388Z,53.55
2022-09-07T04:58:31.689Z,53.54
2022-09-07T04:59:01.461Z,53.43
2022-09-07T04:59:31.489Z,53.31
2022-09-07T05:00:01.540Z,53.22
2022-09-07T05:00:31.548Z,53.12
2022-09-07T05:01:01.621Z,52.97
2022-09-07T05:01:31.706Z,52.97
2022-09-07T05:02:01.680Z,52.94
2022-09-07T05:02:31.823Z,52.90
2022-09-07T05:03:01.708Z,52.98
2022-09-07T05:03:31.738Z,52.98
2022-09-07T05:04:01.772Z,53.04
2022-09-07T05:04:31.788Z,52.96
2022-09-07T05:05:02.957Z,52.98
2022-09-07T05:05:31.927Z,52.82
2022-09-07T05:06:01.949Z,52.83
2022-09-07T05:06:31.968Z,52.85
2022-09-07T05:07:01.996Z,52.70
2022-09-07T05:07:32.037Z,52.79
2022-09-07T05:08:02.071Z,52.66
2022-09-07T05:08:32.145Z,52.70
2022-09-07T05:09:02.134Z,52.75
2022-09-07T05:09:32.182Z,52.69
2022-09-07T05:10:02.229Z,52.69
2022-09-07T05:10:32.263Z,52.80
2022-09-07T05:11:02.295Z,52.81
2022-09-07T05:11:32.318Z,52.84
2022-09-07T05:12:02.342Z,53.00
2022-09-07T05:12:32.376Z,52.93
2022-09-07T05:13:02.413Z,52.97
2022-09-07T05:13:32.438Z,53.04
2022-09-07T05:14:02.466Z,53.15
2022-09-07T05:14:32.524Z,53.27
2022-09-07T05:15:02.531Z,53.28
2022-09-07T05:15:32.569Z,53.27
2022-09-07T05:16:02.587Z,53.19
2022-09-07T05:16:32.693Z,53.20
2022-09-07T05:17:02.848Z,53.23
2022-09-07T05:17:32.772Z,53.30
2022-09-07T05:18:02.796Z,53.40
2022-09-07T05:18:32.863Z,53.33
2022-09-07T05:19:02.886Z,53.27
2022-09-07T05:19:32.905Z,53.23
2022-09-07T05:20:02.940Z,53.15
2022-09-07T05:20:32.958Z,53.01
2022-09-07T05:21:02.983Z,52.83
2022-09-07T05:21:33.023Z,52.88
2022-09-07T05:22:03.038Z,52.82
2022-09-07T05:22:33.082Z,52.90
2022-09-07T05:23:03.098Z,52.94
2022-09-07T05:23:33.127Z,52.93
2022-09-07T05:24:03.153Z,52.85
2022-09-07T05:24:33.176Z,52.94
2022-09-07T05:25:03.198Z,53.03
2022-09-07T05:25:33.220Z,53.00
2022-09-07T05:26:03.253Z,53.02
2022-09-07T05:26:33.283Z,52.95
2022-09-07T05:27:03.301Z,52.95
2022-09-07T05:27:33.331Z,52.88
2022-09-07T05:28:03.355Z,52.75
2022-09-07T05:28:33.564Z,52.66
2022-09-07T05:30:04.553Z,52.64
2022-09-07T05:31:19.609Z,52.58
2022-09-07T05:31:33.595Z,52.50
2022-09-07T05:32:03.708Z,52.55
2022-09-07T05:32:33.824Z,52.44
2022-09-07T05:33:03.938Z,52.48
2022-09-07T05:34:34.078Z,52.48
2022-09-07T05:35:04.375Z,52.57
2022-09-07T05:35:34.239Z,52.67
2022-09-07T05:36:04.341Z,52.82
2022-09-07T05:36:34.346Z,52.94
2022-09-07T05:37:04.465Z,53.03
2022-09-07T05:37:34.570Z,53.18
2022-09-07T05:38:04.689Z,53.27
2022-09-07T05:38:34.796Z,53.24
2022-09-07T05:39:04.903Z,53.28
2022-09-07T05:39:34.951Z,53.25
2022-09-07T05:40:05.026Z,53.28
2022-09-07T05:40:39.892Z,53.35
2022-09-07T05:41:05.062Z,53.42
2022-09-07T05:41:35.086Z,53.29
2022-09-07T05:42:05.114Z,53.22
2022-09-07T05:42:35.141Z,53.17
2022-09-07T05:43:05.164Z,53.14
2022-09-07T05:43:35.253Z,53.04
2022-09-07T05:45:05.289Z,52.73
2022-09-07T05:45:35.390Z,52.72
2022-09-07T05:46:05.452Z,52.49
2022-09-07T05:46:35.466Z,52.30
2022-09-07T05:47:05.511Z,52.00
2022-09-07T05:47:35.522Z,51.91
2022-09-07T05:48:05.545Z,51.62
2022-09-07T05:48:35.571Z,51.28
2022-09-07T05:49:05.601Z,51.00
2022-09-07T05:49:35.628Z,50.80
2022-09-07T05:50:05.646Z,50.56
2022-09-07T05:50:35.674Z,50.32
2022-09-07T05:51:05.692Z,50.02
2022-09-07T05:51:35.719Z,49.74
2022-09-07T05:52:05.743Z,49.48
2022-09-07T05:52:35.768Z,49.20
2022-09-07T05:53:05.787Z,49.23
2022-09-07T05:53:35.815Z,49.24
2022-09-07T05:54:05.839Z,48.98
2022-09-07T05:54:35.865Z,48.75
2022-09-07T05:55:28.281Z,48.53
2022-09-07T05:55:35.949Z,48.21
2022-09-07T05:56:07.167Z,48.07
2022-09-07T05:56:36.162Z,47.89
2022-09-07T05:57:06.044Z,47.67
2022-09-07T05:57:36.099Z,47.54
2022-09-07T05:58:06.129Z,47.35
2022-09-07T05:58:36.207Z,47.20
2022-09-07T05:59:06.242Z,47.04
2022-09-07T05:59:36.266Z,46.84
2022-09-07T06:00:06.293Z,46.69
2022-09-07T06:00:36.319Z,46.52
2022-09-07T06:01:06.343Z,46.41
2022-09-07T06:01:36.366Z,46.33
2022-09-07T06:02:06.531Z,46.18
2022-09-07T06:02:39.637Z,46.12
2022-09-07T06:03:06.591Z,46.01
2022-09-07T06:03:36.627Z,45.96
2022-09-07T06:04:06.653Z,45.89
2022-09-07T06:04:36.675Z,45.82
2022-09-07T06:05:06.697Z,45.75
2022-09-07T06:05:36.725Z,45.66
2022-09-07T06:06:06.756Z,45.61
2022-09-07T06:06:36.786Z,45.56
2022-09-07T06:07:23.146Z,45.42
2022-09-07T06:07:36.860Z,45.39
2022-09-07T06:08:06.882Z,45.37
2022-09-07T06:08:36.914Z,45.33
2022-09-07T06:09:06.940Z,45.30
2022-09-07T06:10:44.690Z,45.19
2022-09-07T06:11:07.102Z,45.18
2022-09-07T06:11:37.129Z,45.16
2022-09-07T06:12:07.152Z,45.22
2022-09-07T06:12:37.189Z,45.22
2022-09-07T06:13:07.213Z,45.21
2022-09-07T06:13:37.243Z,45.13
2022-09-07T06:14:07.267Z,45.15
2022-09-07T06:14:37.295Z,45.09
2022-09-07T06:15:07.341Z,45.02
2022-09-07T06:15:37.355Z,45.16
2022-09-07T06:16:07.453Z,45.06
2022-09-07T06:16:37.649Z,45.04
2022-09-07T06:17:07.549Z,45.04
2022-09-07T06:17:37.592Z,44.96
2022-09-07T06:18:07.616Z,44.96
2022-09-07T06:18:37.646Z,44.92
2022-09-07T06:19:07.671Z,44.90
2022-09-07T06:19:37.703Z,44.93
2022-09-07T06:20:07.725Z,44.94
2022-09-07T06:20:37.757Z,44.90
2022-09-07T06:21:07.781Z,44.96
2022-09-07T06:21:37.805Z,44.91
2022-09-07T06:22:07.829Z,44.91
2022-09-07T06:22:37.863Z,45.01
2022-09-07T06:23:07.888Z,44.90
2022-09-07T06:23:37.913Z,44.96
2022-09-07T06:24:07.937Z,44.89
2022-09-07T06:24:37.962Z,44.93
2022-09-07T06:25:07.983Z,44.87
2022-09-07T06:25:38.011Z,44.91
2022-09-07T06:26:08.039Z,44.84
2022-09-07T06:26:38.070Z,44.81
2022-09-07T06:27:08.092Z,44.80
2022-09-07T06:27:38.119Z,44.87
2022-09-07T06:28:08.152Z,44.86
2022-09-07T06:28:38.178Z,44.87
2022-09-07T06:29:08.202Z,44.87
2022-09-07T06:29:38.314Z,44.94
2022-09-07T06:30:08.429Z,44.98
2022-09-07T06:30:38.429Z,44.93
2022-09-07T06:31:08.539Z,44.96